Arenas Valley, NM

4:08 PM MDT on July 24, 2016 (GMT -0600)
SUNRISE COUNTRY ESTATES | | Change Station

Elev 6168 ft 32.79 °N, 108.23 °W | Updated 7 minutes ago

Clear
Clear
86.0 °F
Feels Like 83 °F
N
4.7
Wind Variable Wind from North

Today
High -- | Low -- °F
--% Chance of Precip.
Yesterday
High -- | Low -- °F
Precip. -- in
Pressure 30.09 in
Visibility 10.0 miles
Clouds Clear
Heat Index 83 °F
Dew Point 43 °F
Humidity 22%
Rainfall 0.00 in
Snow Depth Not available.
6:21 AM 8:16 PM
Waning Gibbous, 72% visible
METAR KSVC 242155Z AUTO 03017KT 10SM CLR 32/04 A3009 RMK AO2 LTG DSNT SW T03230038
Pressure 30.09 in
Visibility 10.0 miles
Clouds Clear
Heat Index 83 °F
Dew Point 43 °F
Humidity 22%
Rainfall 0.00 in
Snow Depth Not available.
6:21 AM 8:16 PM
Waning Gibbous, 72% visible
METAR KSVC 242155Z AUTO 03017KT 10SM CLR 32/04 A3009 RMK AO2 LTG DSNT SW T03230038

10-Day Weather Forecast

Almanac

Astronomy

Jul. 24, 2016 Rise Set
Actual Time
Civil Twilight
Nautical Twilight
Astronomical Twilight
Moon
Length of Visible Light
Length of Day
Tomorrow will be .
, % of the Moon is Illuminated

Today's Extremes

State Highs State Lows

Community

WunderPhotos

Upload Photos

1,927,195 photos uploaded!

WunderBlog® & News

Nearby

Air Quality

  Air Quality AQ Index Pollutant
Not available.

Snow Depth

Station Depth Elevation

Earthquake Activity

City Distance Mag. Time & Date
Minimum magnitude displayed is 2.5.

Coastal Water Temperatures

Place Temperature

Stations

Nearby Weather Stations

Station Location Temp. Windchill Dew Point Humidity Wind Precip. Elev Updated Type
                   

Watches & Warnings

There are currently no watches in effect.